sensor_id;sensor_type;location;lat;lon;timestamp;temperature;humidity
3198;DHT22;1611;49.394;11.136;2024-01-30T00:00:01;1.30;66.70
3198;DHT22;1611;49.394;11.136;2024-01-30T00:02:30;1.30;65.70
3198;DHT22;1611;49.394;11.136;2024-01-30T00:04:57;1.30;65.90
3198;DHT22;1611;49.394;11.136;2024-01-30T00:07:23;1.30;66.00
3198;DHT22;1611;49.394;11.136;2024-01-30T00:09:50;1.30;66.20
3198;DHT22;1611;49.394;11.136;2024-01-30T00:12:17;1.20;66.50
3198;DHT22;1611;49.394;11.136;2024-01-30T00:14:43;1.20;66.70
3198;DHT22;1611;49.394;11.136;2024-01-30T00:17:10;1.30;67.20
3198;DHT22;1611;49.394;11.136;2024-01-30T00:19:38;1.30;67.60
3198;DHT22;1611;49.394;11.136;2024-01-30T00:22:05;1.20;67.50
3198;DHT22;1611;49.394;11.136;2024-01-30T00:24:33;1.30;67.60
3198;DHT22;1611;49.394;11.136;2024-01-30T00:26:59;1.30;68.00
3198;DHT22;1611;49.394;11.136;2024-01-30T00:29:26;1.30;68.00
3198;DHT22;1611;49.394;11.136;2024-01-30T00:31:56;1.30;68.20
3198;DHT22;1611;49.394;11.136;2024-01-30T00:34:23;1.30;67.80
3198;DHT22;1611;49.394;11.136;2024-01-30T00:36:51;1.30;68.00
3198;DHT22;1611;49.394;11.136;2024-01-30T00:39:17;1.30;68.30
3198;DHT22;1611;49.394;11.136;2024-01-30T00:41:45;1.30;68.30
3198;DHT22;1611;49.394;11.136;2024-01-30T00:44:11;1.30;68.50
3198;DHT22;1611;49.394;11.136;2024-01-30T00:46:38;1.30;68.10
3198;DHT22;1611;49.394;11.136;2024-01-30T00:49:05;1.40;67.90
3198;DHT22;1611;49.394;11.136;2024-01-30T00:51:31;1.50;67.60
3198;DHT22;1611;49.394;11.136;2024-01-30T00:53:59;1.50;67.10
3198;DHT22;1611;49.394;11.136;2024-01-30T00:56:26;1.60;63.80
3198;DHT22;1611;49.394;11.136;2024-01-30T00:58:53;1.70;64.00
3198;DHT22;1611;49.394;11.136;2024-01-30T01:01:21;1.70;63.50
3198;DHT22;1611;49.394;11.136;2024-01-30T01:03:48;1.80;62.60
3198;DHT22;1611;49.394;11.136;2024-01-30T01:06:14;1.80;62.40
3198;DHT22;1611;49.394;11.136;2024-01-30T01:08:41;1.90;61.50
3198;DHT22;1611;49.394;11.136;2024-01-30T01:11:09;1.90;60.70
3198;DHT22;1611;49.394;11.136;2024-01-30T01:13:36;2.00;59.00
3198;DHT22;1611;49.394;11.136;2024-01-30T01:16:03;2.00;58.40
3198;DHT22;1611;49.394;11.136;2024-01-30T01:18:30;2.10;58.70
3198;DHT22;1611;49.394;11.136;2024-01-30T01:20:57;2.20;59.00
3198;DHT22;1611;49.394;11.136;2024-01-30T01:23:23;2.20;59.10
3198;DHT22;1611;49.394;11.136;2024-01-30T01:25:50;2.20;59.20
3198;DHT22;1611;49.394;11.136;2024-01-30T01:28:18;2.20;59.20
3198;DHT22;1611;49.394;11.136;2024-01-30T01:30:45;2.20;59.00
3198;DHT22;1611;49.394;11.136;2024-01-30T01:33:12;2.20;59.00
3198;DHT22;1611;49.394;11.136;2024-01-30T01:35:39;2.20;58.60
3198;DHT22;1611;49.394;11.136;2024-01-30T01:38:06;2.20;57.70
3198;DHT22;1611;49.394;11.136;2024-01-30T01:40:33;2.20;56.30
3198;DHT22;1611;49.394;11.136;2024-01-30T01:43:03;2.20;57.60
3198;DHT22;1611;49.394;11.136;2024-01-30T01:45:31;2.20;56.50
3198;DHT22;1611;49.394;11.136;2024-01-30T01:47:58;2.20;56.00
3198;DHT22;1611;49.394;11.136;2024-01-30T01:50:25;2.20;56.50
3198;DHT22;1611;49.394;11.136;2024-01-30T01:52:53;2.20;57.20
3198;DHT22;1611;49.394;11.136;2024-01-30T01:55:21;2.20;56.90
3198;DHT22;1611;49.394;11.136;2024-01-30T01:57:49;2.20;56.80
3198;DHT22;1611;49.394;11.136;2024-01-30T02:00:17;2.20;57.20
3198;DHT22;1611;49.394;11.136;2024-01-30T02:02:46;2.20;57.80
3198;DHT22;1611;49.394;11.136;2024-01-30T02:05:13;2.10;57.50
3198;DHT22;1611;49.394;11.136;2024-01-30T02:07:41;2.10;58.20
3198;DHT22;1611;49.394;11.136;2024-01-30T02:10:08;2.10;56.90
3198;DHT22;1611;49.394;11.136;2024-01-30T02:12:35;2.10;57.50
3198;DHT22;1611;49.394;11.136;2024-01-30T02:15:02;2.10;57.70
3198;DHT22;1611;49.394;11.136;2024-01-30T02:17:30;2.10;56.60
3198;DHT22;1611;49.394;11.136;2024-01-30T02:19:58;2.20;57.90
3198;DHT22;1611;49.394;11.136;2024-01-30T02:22:27;2.10;58.10
3198;DHT22;1611;49.394;11.136;2024-01-30T02:24:54;2.20;58.40
3198;DHT22;1611;49.394;11.136;2024-01-30T02:27:20;2.20;56.30
3198;DHT22;1611;49.394;11.136;2024-01-30T02:29:47;2.30;57.20
3198;DHT22;1611;49.394;11.136;2024-01-30T02:32:14;2.30;56.60
3198;DHT22;1611;49.394;11.136;2024-01-30T02:34:40;2.30;56.70
3198;DHT22;1611;49.394;11.136;2024-01-30T02:37:07;2.30;57.10
3198;DHT22;1611;49.394;11.136;2024-01-30T02:39:35;2.30;57.20
3198;DHT22;1611;49.394;11.136;2024-01-30T02:42:02;2.40;55.30
3198;DHT22;1611;49.394;11.136;2024-01-30T02:44:29;2.40;55.00
3198;DHT22;1611;49.394;11.136;2024-01-30T02:46:55;2.50;55.10
3198;DHT22;1611;49.394;11.136;2024-01-30T02:49:22;2.60;54.30
3198;DHT22;1611;49.394;11.136;2024-01-30T02:51:49;2.60;54.80
3198;DHT22;1611;49.394;11.136;2024-01-30T02:54:16;2.60;54.80
3198;DHT22;1611;49.394;11.136;2024-01-30T02:56:44;2.60;55.60
3198;DHT22;1611;49.394;11.136;2024-01-30T02:59:10;2.60;55.90
3198;DHT22;1611;49.394;11.136;2024-01-30T03:01:43;2.50;55.70
3198;DHT22;1611;49.394;11.136;2024-01-30T03:04:09;2.50;55.60
3198;DHT22;1611;49.394;11.136;2024-01-30T03:06:36;2.50;56.30
3198;DHT22;1611;49.394;11.136;2024-01-30T03:09:03;2.50;56.00
3198;DHT22;1611;49.394;11.136;2024-01-30T03:11:30;2.40;56.10
3198;DHT22;1611;49.394;11.136;2024-01-30T03:13:58;2.40;56.40
3198;DHT22;1611;49.394;11.136;2024-01-30T03:16:25;2.40;56.50
3198;DHT22;1611;49.394;11.136;2024-01-30T03:18:51;2.40;56.90
3198;DHT22;1611;49.394;11.136;2024-01-30T03:21:18;2.30;57.30
3198;DHT22;1611;49.394;11.136;2024-01-30T03:23:45;2.30;57.60
3198;DHT22;1611;49.394;11.136;2024-01-30T03:26:11;2.30;58.00
3198;DHT22;1611;49.394;11.136;2024-01-30T03:28:40;2.20;58.10
3198;DHT22;1611;49.394;11.136;2024-01-30T03:31:08;2.20;58.20
3198;DHT22;1611;49.394;11.136;2024-01-30T03:33:36;2.20;57.90
3198;DHT22;1611;49.394;11.136;2024-01-30T03:36:04;2.20;58.20
3198;DHT22;1611;49.394;11.136;2024-01-30T03:38:30;2.20;58.30
3198;DHT22;1611;49.394;11.136;2024-01-30T03:40:58;2.10;58.50
3198;DHT22;1611;49.394;11.136;2024-01-30T03:43:25;2.10;58.70
3198;DHT22;1611;49.394;11.136;2024-01-30T03:45:51;2.10;58.90
3198;DHT22;1611;49.394;11.136;2024-01-30T03:48:20;2.10;59.90
3198;DHT22;1611;49.394;11.136;2024-01-30T03:50:47;2.10;59.00
3198;DHT22;1611;49.394;11.136;2024-01-30T03:53:14;2.00;58.90
3198;DHT22;1611;49.394;11.136;2024-01-30T03:55:40;2.00;58.90
3198;DHT22;1611;49.394;11.136;2024-01-30T03:58:07;2.00;59.10
3198;DHT22;1611;49.394;11.136;2024-01-30T04:00:34;2.00;59.70
3198;DHT22;1611;49.394;11.136;2024-01-30T04:03:01;2.00;59.10
3198;DHT22;1611;49.394;11.136;2024-01-30T04:05:29;2.00;59.10
3198;DHT22;1611;49.394;11.136;2024-01-30T04:07:56;2.00;59.00
3198;DHT22;1611;49.394;11.136;2024-01-30T04:10:23;1.90;59.00
3198;DHT22;1611;49.394;11.136;2024-01-30T04:12:50;2.00;59.40
3198;DHT22;1611;49.394;11.136;2024-01-30T04:15:17;1.90;59.20
3198;DHT22;1611;49.394;11.136;2024-01-30T04:17:43;1.90;60.10
3198;DHT22;1611;49.394;11.136;2024-01-30T04:20:13;1.90;59.90
3198;DHT22;1611;49.394;11.136;2024-01-30T04:22:43;1.90;59.60
3198;DHT22;1611;49.394;11.136;2024-01-30T04:25:09;2.00;59.40
3198;DHT22;1611;49.394;11.136;2024-01-30T04:27:36;1.90;59.20
3198;DHT22;1611;49.394;11.136;2024-01-30T04:30:03;2.00;59.20
3198;DHT22;1611;49.394;11.136;2024-01-30T04:32:31;1.90;59.30
3198;DHT22;1611;49.394;11.136;2024-01-30T04:34:57;1.90;59.00
3198;DHT22;1611;49.394;11.136;2024-01-30T04:37:24;1.80;59.90
3198;DHT22;1611;49.394;11.136;2024-01-30T04:39:52;1.80;59.60
3198;DHT22;1611;49.394;11.136;2024-01-30T04:42:19;1.90;59.50
3198;DHT22;1611;49.394;11.136;2024-01-30T04:44:46;2.00;59.20
3198;DHT22;1611;49.394;11.136;2024-01-30T04:47:13;2.00;59.20
3198;DHT22;1611;49.394;11.136;2024-01-30T04:49:39;1.90;59.40
3198;DHT22;1611;49.394;11.136;2024-01-30T04:52:06;2.00;59.30
3198;DHT22;1611;49.394;11.136;2024-01-30T04:54:34;2.00;59.30
3198;DHT22;1611;49.394;11.136;2024-01-30T04:57:02;2.00;59.60
3198;DHT22;1611;49.394;11.136;2024-01-30T04:59:31;1.90;59.80
3198;DHT22;1611;49.394;11.136;2024-01-30T05:01:57;1.90;60.10
3198;DHT22;1611;49.394;11.136;2024-01-30T05:04:24;1.90;60.30
3198;DHT22;1611;49.394;11.136;2024-01-30T05:06:51;1.90;60.50
3198;DHT22;1611;49.394;11.136;2024-01-30T05:09:17;1.90;61.10
3198;DHT22;1611;49.394;11.136;2024-01-30T05:11:44;2.00;60.90
3198;DHT22;1611;49.394;11.136;2024-01-30T05:14:12;2.00;61.20
3198;DHT22;1611;49.394;11.136;2024-01-30T05:16:40;2.00;61.10
3198;DHT22;1611;49.394;11.136;2024-01-30T05:19:08;2.10;61.50
3198;DHT22;1611;49.394;11.136;2024-01-30T05:21:35;2.10;60.70
3198;DHT22;1611;49.394;11.136;2024-01-30T05:24:01;2.10;60.50
3198;DHT22;1611;49.394;11.136;2024-01-30T05:26:28;2.10;60.20
3198;DHT22;1611;49.394;11.136;2024-01-30T05:28:56;2.20;60.20
3198;DHT22;1611;49.394;11.136;2024-01-30T05:31:24;2.20;59.90
3198;DHT22;1611;49.394;11.136;2024-01-30T05:33:52;2.30;59.80
3198;DHT22;1611;49.394;11.136;2024-01-30T05:36:19;2.30;59.70
3198;DHT22;1611;49.394;11.136;2024-01-30T05:38:47;2.30;59.80
3198;DHT22;1611;49.394;11.136;2024-01-30T05:41:14;2.30;59.30
3198;DHT22;1611;49.394;11.136;2024-01-30T05:43:41;2.30;59.60
3198;DHT22;1611;49.394;11.136;2024-01-30T05:46:07;2.20;59.50
3198;DHT22;1611;49.394;11.136;2024-01-30T05:48:36;2.30;59.70
3198;DHT22;1611;49.394;11.136;2024-01-30T05:51:03;2.10;59.80
3198;DHT22;1611;49.394;11.136;2024-01-30T05:53:30;2.10;59.80
3198;DHT22;1611;49.394;11.136;2024-01-30T05:55:57;2.10;60.10
3198;DHT22;1611;49.394;11.136;2024-01-30T05:58:23;2.10;60.20
3198;DHT22;1611;49.394;11.136;2024-01-30T06:00:50;2.10;60.30
3198;DHT22;1611;49.394;11.136;2024-01-30T06:03:17;2.10;60.40
3198;DHT22;1611;49.394;11.136;2024-01-30T06:05:45;2.10;60.50
3198;DHT22;1611;49.394;11.136;2024-01-30T06:08:12;2.10;59.70
3198;DHT22;1611;49.394;11.136;2024-01-30T06:10:39;2.20;59.60
3198;DHT22;1611;49.394;11.136;2024-01-30T06:13:05;2.20;59.60
3198;DHT22;1611;49.394;11.136;2024-01-30T06:15:32;2.20;59.60
3198;DHT22;1611;49.394;11.136;2024-01-30T06:17:59;2.20;59.50
3198;DHT22;1611;49.394;11.136;2024-01-30T06:20:26;2.20;59.60
3198;DHT22;1611;49.394;11.136;2024-01-30T06:22:54;2.20;59.60
3198;DHT22;1611;49.394;11.136;2024-01-30T06:25:20;2.20;59.30
3198;DHT22;1611;49.394;11.136;2024-01-30T06:27:47;2.20;59.50
3198;DHT22;1611;49.394;11.136;2024-01-30T06:30:14;2.30;59.50
3198;DHT22;1611;49.394;11.136;2024-01-30T06:32:41;2.30;59.50
3198;DHT22;1611;49.394;11.136;2024-01-30T06:35:08;2.30;59.20
3198;DHT22;1611;49.394;11.136;2024-01-30T06:37:36;2.30;59.20
3198;DHT22;1611;49.394;11.136;2024-01-30T06:40:05;2.30;59.20
3198;DHT22;1611;49.394;11.136;2024-01-30T06:42:32;2.30;59.20
3198;DHT22;1611;49.394;11.136;2024-01-30T06:44:58;2.20;59.30
3198;DHT22;1611;49.394;11.136;2024-01-30T06:47:25;2.20;59.30
3198;DHT22;1611;49.394;11.136;2024-01-30T06:49:52;2.20;59.60
3198;DHT22;1611;49.394;11.136;2024-01-30T06:52:19;2.20;59.80
3198;DHT22;1611;49.394;11.136;2024-01-30T06:54:45;2.20;59.50
3198;DHT22;1611;49.394;11.136;2024-01-30T06:57:13;2.20;59.90
3198;DHT22;1611;49.394;11.136;2024-01-30T06:59:40;2.20;59.60
3198;DHT22;1611;49.394;11.136;2024-01-30T07:02:09;2.20;59.70
3198;DHT22;1611;49.394;11.136;2024-01-30T07:04:36;2.20;59.80
3198;DHT22;1611;49.394;11.136;2024-01-30T07:07:04;2.20;59.90
3198;DHT22;1611;49.394;11.136;2024-01-30T07:09:31;2.20;60.10
3198;DHT22;1611;49.394;11.136;2024-01-30T07:11:58;2.20;59.90
3198;DHT22;1611;49.394;11.136;2024-01-30T07:14:26;2.20;59.80
3198;DHT22;1611;49.394;11.136;2024-01-30T07:16:53;2.30;60.00
3198;DHT22;1611;49.394;11.136;2024-01-30T07:19:19;2.20;60.20
3198;DHT22;1611;49.394;11.136;2024-01-30T07:21:46;2.30;60.20
3198;DHT22;1611;49.394;11.136;2024-01-30T07:24:13;2.30;59.90
3198;DHT22;1611;49.394;11.136;2024-01-30T07:26:39;2.40;59.80
3198;DHT22;1611;49.394;11.136;2024-01-30T07:29:06;2.40;59.60
3198;DHT22;1611;49.394;11.136;2024-01-30T07:31:34;2.40;59.40
3198;DHT22;1611;49.394;11.136;2024-01-30T07:34:01;2.40;59.30
3198;DHT22;1611;49.394;11.136;2024-01-30T07:36:28;2.50;59.10
3198;DHT22;1611;49.394;11.136;2024-01-30T07:38:55;2.60;59.10
3198;DHT22;1611;49.394;11.136;2024-01-30T07:41:22;2.60;58.90
3198;DHT22;1611;49.394;11.136;2024-01-30T07:43:50;2.60;58.80
3198;DHT22;1611;49.394;11.136;2024-01-30T07:46:17;2.70;58.80
3198;DHT22;1611;49.394;11.136;2024-01-30T07:48:45;2.70;58.40
3198;DHT22;1611;49.394;11.136;2024-01-30T07:51:12;2.80;57.90
3198;DHT22;1611;49.394;11.136;2024-01-30T07:53:39;2.90;58.10
3198;DHT22;1611;49.394;11.136;2024-01-30T07:56:06;2.90;57.80
3198;DHT22;1611;49.394;11.136;2024-01-30T07:58:32;3.00;57.50
3198;DHT22;1611;49.394;11.136;2024-01-30T08:00:59;3.00;57.10
3198;DHT22;1611;49.394;11.136;2024-01-30T08:03:26;3.10;57.00
3198;DHT22;1611;49.394;11.136;2024-01-30T08:05:54;3.20;56.60
3198;DHT22;1611;49.394;11.136;2024-01-30T08:08:21;3.30;56.60
3198;DHT22;1611;49.394;11.136;2024-01-30T08:10:47;3.40;55.70
3198;DHT22;1611;49.394;11.136;2024-01-30T08:13:15;3.50;55.10
3198;DHT22;1611;49.394;11.136;2024-01-30T08:15:42;3.60;54.80
3198;DHT22;1611;49.394;11.136;2024-01-30T08:18:09;3.70;54.80
3198;DHT22;1611;49.394;11.136;2024-01-30T08:20:35;3.80;54.30
3198;DHT22;1611;49.394;11.136;2024-01-30T08:23:03;3.80;54.40
3198;DHT22;1611;49.394;11.136;2024-01-30T08:25:30;3.80;54.50
3198;DHT22;1611;49.394;11.136;2024-01-30T08:27:57;3.90;54.20
3198;DHT22;1611;49.394;11.136;2024-01-30T08:30:24;4.00;53.60
3198;DHT22;1611;49.394;11.136;2024-01-30T08:32:50;4.10;53.40
3198;DHT22;1611;49.394;11.136;2024-01-30T08:35:17;4.20;53.10
3198;DHT22;1611;49.394;11.136;2024-01-30T08:37:44;4.30;53.00
3198;DHT22;1611;49.394;11.136;2024-01-30T08:40:12;4.40;52.90
3198;DHT22;1611;49.394;11.136;2024-01-30T08:42:39;4.60;52.20
3198;DHT22;1611;49.394;11.136;2024-01-30T08:45:06;4.70;51.70
3198;DHT22;1611;49.394;11.136;2024-01-30T08:47:33;4.90;51.50
3198;DHT22;1611;49.394;11.136;2024-01-30T08:50:00;5.00;50.90
3198;DHT22;1611;49.394;11.136;2024-01-30T08:52:27;5.10;50.10
3198;DHT22;1611;49.394;11.136;2024-01-30T08:54:54;5.10;49.70
3198;DHT22;1611;49.394;11.136;2024-01-30T08:57:22;5.20;49.50
3198;DHT22;1611;49.394;11.136;2024-01-30T08:59:48;5.30;49.60
3198;DHT22;1611;49.394;11.136;2024-01-30T09:02:15;5.30;49.20
3198;DHT22;1611;49.394;11.136;2024-01-30T09:04:43;5.40;48.70
3198;DHT22;1611;49.394;11.136;2024-01-30T09:07:10;5.50;48.40
3198;DHT22;1611;49.394;11.136;2024-01-30T09:09:38;5.60;48.70
3198;DHT22;1611;49.394;11.136;2024-01-30T09:12:07;5.70;48.60
3198;DHT22;1611;49.394;11.136;2024-01-30T09:14:36;5.80;48.00
3198;DHT22;1611;49.394;11.136;2024-01-30T09:17:03;5.90;47.30
3198;DHT22;1611;49.394;11.136;2024-01-30T09:19:30;5.90;47.10
3198;DHT22;1611;49.394;11.136;2024-01-30T09:21:57;6.10;46.20
3198;DHT22;1611;49.394;11.136;2024-01-30T09:24:25;6.20;46.10
3198;DHT22;1611;49.394;11.136;2024-01-30T09:26:51;6.30;45.90
3198;DHT22;1611;49.394;11.136;2024-01-30T09:29:18;6.40;44.70
3198;DHT22;1611;49.394;11.136;2024-01-30T09:31:46;6.60;43.60
3198;DHT22;1611;49.394;11.136;2024-01-30T09:34:13;6.70;43.00
3198;DHT22;1611;49.394;11.136;2024-01-30T09:36:40;6.90;43.20
3198;DHT22;1611;49.394;11.136;2024-01-30T09:39:06;7.00;43.00
3198;DHT22;1611;49.394;11.136;2024-01-30T09:41:38;7.10;42.40
3198;DHT22;1611;49.394;11.136;2024-01-30T09:44:08;7.30;42.40
3198;DHT22;1611;49.394;11.136;2024-01-30T09:46:35;7.60;41.70
3198;DHT22;1611;49.394;11.136;2024-01-30T09:49:04;7.90;40.70
3198;DHT22;1611;49.394;11.136;2024-01-30T09:51:33;8.70;37.70
3198;DHT22;1611;49.394;11.136;2024-01-30T09:54:02;9.90;34.80
3198;DHT22;1611;49.394;11.136;2024-01-30T09:56:29;10.90;30.80
3198;DHT22;1611;49.394;11.136;2024-01-30T09:58:56;11.70;27.80
3198;DHT22;1611;49.394;11.136;2024-01-30T10:01:23;12.40;25.60
3198;DHT22;1611;49.394;11.136;2024-01-30T10:03:50;13.00;24.20
3198;DHT22;1611;49.394;11.136;2024-01-30T10:06:20;13.20;22.30
3198;DHT22;1611;49.394;11.136;2024-01-30T10:08:47;13.20;22.00
3198;DHT22;1611;49.394;11.136;2024-01-30T10:11:14;12.90;22.60
3198;DHT22;1611;49.394;11.136;2024-01-30T10:13:41;12.50;23.00
3198;DHT22;1611;49.394;11.136;2024-01-30T10:16:08;12.10;23.50
3198;DHT22;1611;49.394;11.136;2024-01-30T10:18:34;11.90;24.10
3198;DHT22;1611;49.394;11.136;2024-01-30T10:21:01;11.70;25.00
3198;DHT22;1611;49.394;11.136;2024-01-30T10:23:30;11.50;26.20
3198;DHT22;1611;49.394;11.136;2024-01-30T10:25:57;11.30;28.20
3198;DHT22;1611;49.394;11.136;2024-01-30T10:28:27;11.20;28.20
3198;DHT22;1611;49.394;11.136;2024-01-30T10:30:58;11.10;28.10
3198;DHT22;1611;49.394;11.136;2024-01-30T10:33:26;11.00;28.00
3198;DHT22;1611;49.394;11.136;2024-01-30T10:35:54;10.90;29.60
3198;DHT22;1611;49.394;11.136;2024-01-30T10:38:25;10.70;29.00
3198;DHT22;1611;49.394;11.136;2024-01-30T10:40:56;10.50;28.90
3198;DHT22;1611;49.394;11.136;2024-01-30T10:43:24;10.40;29.10
3198;DHT22;1611;49.394;11.136;2024-01-30T10:45:57;10.30;29.80
3198;DHT22;1611;49.394;11.136;2024-01-30T10:48:30;10.40;29.70
3198;DHT22;1611;49.394;11.136;2024-01-30T10:50:59;10.50;30.40
3198;DHT22;1611;49.394;11.136;2024-01-30T10:53:30;10.50;30.40
3198;DHT22;1611;49.394;11.136;2024-01-30T10:55:59;10.50;30.10
3198;DHT22;1611;49.394;11.136;2024-01-30T10:58:27;10.60;29.90
3198;DHT22;1611;49.394;11.136;2024-01-30T11:00:54;10.70;29.90
3198;DHT22;1611;49.394;11.136;2024-01-30T11:03:21;10.70;29.30
3198;DHT22;1611;49.394;11.136;2024-01-30T11:05:49;10.50;29.10
3198;DHT22;1611;49.394;11.136;2024-01-30T11:08:23;10.50;29.70
3198;DHT22;1611;49.394;11.136;2024-01-30T11:10:55;10.60;29.50
3198;DHT22;1611;49.394;11.136;2024-01-30T11:13:26;10.70;29.20
3198;DHT22;1611;49.394;11.136;2024-01-30T11:15:53;10.70;29.00
3198;DHT22;1611;49.394;11.136;2024-01-30T11:18:23;10.80;29.10
3198;DHT22;1611;49.394;11.136;2024-01-30T11:20:51;10.90;29.20
3198;DHT22;1611;49.394;11.136;2024-01-30T11:23:17;11.00;29.60
3198;DHT22;1611;49.394;11.136;2024-01-30T11:25:44;11.00;29.90
3198;DHT22;1611;49.394;11.136;2024-01-30T11:28:13;11.00;28.70
3198;DHT22;1611;49.394;11.136;2024-01-30T11:30:42;10.90;28.70
3198;DHT22;1611;49.394;11.136;2024-01-30T11:33:10;10.90;28.50
3198;DHT22;1611;49.394;11.136;2024-01-30T11:35:38;10.90;29.10
3198;DHT22;1611;49.394;11.136;2024-01-30T11:38:07;11.00;29.10
3198;DHT22;1611;49.394;11.136;2024-01-30T11:40:36;11.00;29.30
3198;DHT22;1611;49.394;11.136;2024-01-30T11:43:04;11.00;28.70
3198;DHT22;1611;49.394;11.136;2024-01-30T11:45:32;11.20;29.10
3198;DHT22;1611;49.394;11.136;2024-01-30T11:48:00;11.20;28.70
3198;DHT22;1611;49.394;11.136;2024-01-30T11:50:29;11.30;29.30
3198;DHT22;1611;49.394;11.136;2024-01-30T11:52:56;11.40;28.70
3198;DHT22;1611;49.394;11.136;2024-01-30T11:55:23;11.50;28.50
3198;DHT22;1611;49.394;11.136;2024-01-30T11:57:50;11.70;28.90
3198;DHT22;1611;49.394;11.136;2024-01-30T12:00:18;11.80;28.80
3198;DHT22;1611;49.394;11.136;2024-01-30T12:02:49;11.90;28.50
3198;DHT22;1611;49.394;11.136;2024-01-30T12:05:19;11.90;28.10
3198;DHT22;1611;49.394;11.136;2024-01-30T12:07:46;11.90;27.70
3198;DHT22;1611;49.394;11.136;2024-01-30T12:10:13;11.80;27.70
3198;DHT22;1611;49.394;11.136;2024-01-30T12:12:42;11.80;28.40
3198;DHT22;1611;49.394;11.136;2024-01-30T12:15:10;11.80;28.70
3198;DHT22;1611;49.394;11.136;2024-01-30T12:17:37;11.80;28.50
3198;DHT22;1611;49.394;11.136;2024-01-30T12:20:04;11.80;28.10
3198;DHT22;1611;49.394;11.136;2024-01-30T12:22:36;11.90;28.40
3198;DHT22;1611;49.394;11.136;2024-01-30T12:25:04;12.10;27.40
3198;DHT22;1611;49.394;11.136;2024-01-30T12:27:31;12.40;26.80
3198;DHT22;1611;49.394;11.136;2024-01-30T12:29:59;12.50;25.80
3198;DHT22;1611;49.394;11.136;2024-01-30T12:32:25;12.50;26.40
3198;DHT22;1611;49.394;11.136;2024-01-30T12:34:55;12.70;26.70
3198;DHT22;1611;49.394;11.136;2024-01-30T12:37:22;12.80;25.80
3198;DHT22;1611;49.394;11.136;2024-01-30T12:39:51;12.70;25.80
3198;DHT22;1611;49.394;11.136;2024-01-30T12:42:19;12.60;25.80
3198;DHT22;1611;49.394;11.136;2024-01-30T12:44:46;12.60;25.60
3198;DHT22;1611;49.394;11.136;2024-01-30T12:47:13;12.60;26.30
3198;DHT22;1611;49.394;11.136;2024-01-30T12:49:41;12.70;26.10
3198;DHT22;1611;49.394;11.136;2024-01-30T12:52:08;12.40;25.20
3198;DHT22;1611;49.394;11.136;2024-01-30T12:54:35;12.50;25.80
3198;DHT22;1611;49.394;11.136;2024-01-30T12:57:03;12.50;26.20
3198;DHT22;1611;49.394;11.136;2024-01-30T12:59:30;12.60;26.10
3198;DHT22;1611;49.394;11.136;2024-01-30T13:01:58;12.60;26.40
3198;DHT22;1611;49.394;11.136;2024-01-30T13:04:25;12.70;26.90
3198;DHT22;1611;49.394;11.136;2024-01-30T13:06:52;12.70;26.60
3198;DHT22;1611;49.394;11.136;2024-01-30T13:09:18;12.80;26.40
3198;DHT22;1611;49.394;11.136;2024-01-30T13:11:45;13.10;26.30
3198;DHT22;1611;49.394;11.136;2024-01-30T13:14:14;13.30;25.70
3198;DHT22;1611;49.394;11.136;2024-01-30T13:16:40;13.40;25.50
3198;DHT22;1611;49.394;11.136;2024-01-30T13:19:07;13.80;25.80
3198;DHT22;1611;49.394;11.136;2024-01-30T13:21:34;14.00;22.50
3198;DHT22;1611;49.394;11.136;2024-01-30T13:24:00;14.30;21.90
3198;DHT22;1611;49.394;11.136;2024-01-30T13:26:27;14.60;21.60
3198;DHT22;1611;49.394;11.136;2024-01-30T13:28:56;14.80;22.00
3198;DHT22;1611;49.394;11.136;2024-01-30T13:31:24;14.70;20.70
3198;DHT22;1611;49.394;11.136;2024-01-30T13:33:52;14.50;21.40
3198;DHT22;1611;49.394;11.136;2024-01-30T13:36:19;14.20;21.40
3198;DHT22;1611;49.394;11.136;2024-01-30T13:38:46;14.10;22.00
3198;DHT22;1611;49.394;11.136;2024-01-30T13:41:13;14.00;22.00
3198;DHT22;1611;49.394;11.136;2024-01-30T13:43:40;14.10;21.90
3198;DHT22;1611;49.394;11.136;2024-01-30T13:46:07;14.00;22.40
3198;DHT22;1611;49.394;11.136;2024-01-30T13:48:35;13.90;23.10
3198;DHT22;1611;49.394;11.136;2024-01-30T13:51:01;13.80;23.30
3198;DHT22;1611;49.394;11.136;2024-01-30T13:53:28;13.70;23.90
3198;DHT22;1611;49.394;11.136;2024-01-30T13:55:55;13.70;24.10
3198;DHT22;1611;49.394;11.136;2024-01-30T13:58:22;13.60;23.80
3198;DHT22;1611;49.394;11.136;2024-01-30T14:00:48;13.50;24.00
3198;DHT22;1611;49.394;11.136;2024-01-30T14:03:15;13.40;26.10
3198;DHT22;1611;49.394;11.136;2024-01-30T14:05:43;13.40;26.70
3198;DHT22;1611;49.394;11.136;2024-01-30T14:08:10;13.50;27.30
3198;DHT22;1611;49.394;11.136;2024-01-30T14:10:37;13.30;27.10
3198;DHT22;1611;49.394;11.136;2024-01-30T14:13:04;13.20;27.40
3198;DHT22;1611;49.394;11.136;2024-01-30T14:15:31;12.90;26.70
3198;DHT22;1611;49.394;11.136;2024-01-30T14:17:57;12.80;25.80
3198;DHT22;1611;49.394;11.136;2024-01-30T14:20:24;12.70;27.00
3198;DHT22;1611;49.394;11.136;2024-01-30T14:22:52;12.50;26.80
3198;DHT22;1611;49.394;11.136;2024-01-30T14:25:21;12.40;28.20
3198;DHT22;1611;49.394;11.136;2024-01-30T14:27:47;12.20;29.20
3198;DHT22;1611;49.394;11.136;2024-01-30T14:30:14;12.20;29.80
3198;DHT22;1611;49.394;11.136;2024-01-30T14:32:41;12.00;28.30
3198;DHT22;1611;49.394;11.136;2024-01-30T14:35:10;11.80;28.90
3198;DHT22;1611;49.394;11.136;2024-01-30T14:37:37;11.70;30.30
3198;DHT22;1611;49.394;11.136;2024-01-30T14:40:07;11.60;30.90
3198;DHT22;1611;49.394;11.136;2024-01-30T14:42:33;11.50;30.70
3198;DHT22;1611;49.394;11.136;2024-01-30T14:45:01;11.50;31.10
3198;DHT22;1611;49.394;11.136;2024-01-30T14:47:28;11.50;31.70
3198;DHT22;1611;49.394;11.136;2024-01-30T14:49:54;11.40;32.00
3198;DHT22;1611;49.394;11.136;2024-01-30T14:52:21;11.30;33.30
3198;DHT22;1611;49.394;11.136;2024-01-30T14:54:48;11.30;33.50
3198;DHT22;1611;49.394;11.136;2024-01-30T14:57:16;11.20;35.20
3198;DHT22;1611;49.394;11.136;2024-01-30T14:59:43;11.10;34.90
3198;DHT22;1611;49.394;11.136;2024-01-30T15:02:10;11.10;35.80
3198;DHT22;1611;49.394;11.136;2024-01-30T15:04:36;11.00;35.40
3198;DHT22;1611;49.394;11.136;2024-01-30T15:07:03;10.90;35.80
3198;DHT22;1611;49.394;11.136;2024-01-30T15:09:30;10.80;36.20
3198;DHT22;1611;49.394;11.136;2024-01-30T15:11:57;10.70;36.80
3198;DHT22;1611;49.394;11.136;2024-01-30T15:14:25;10.60;37.60
3198;DHT22;1611;49.394;11.136;2024-01-30T15:16:52;10.60;38.10
3198;DHT22;1611;49.394;11.136;2024-01-30T15:19:18;10.50;37.60
3198;DHT22;1611;49.394;11.136;2024-01-30T15:21:45;10.40;37.90
3198;DHT22;1611;49.394;11.136;2024-01-30T15:24:12;10.30;38.50
3198;DHT22;1611;49.394;11.136;2024-01-30T15:26:41;10.30;38.50
3198;DHT22;1611;49.394;11.136;2024-01-30T15:29:07;10.20;38.90
3198;DHT22;1611;49.394;11.136;2024-01-30T15:31:35;10.00;39.60
3198;DHT22;1611;49.394;11.136;2024-01-30T15:34:02;10.00;40.00
3198;DHT22;1611;49.394;11.136;2024-01-30T15:36:29;9.90;40.60
3198;DHT22;1611;49.394;11.136;2024-01-30T15:38:56;9.80;40.90
3198;DHT22;1611;49.394;11.136;2024-01-30T15:41:23;9.70;41.30
3198;DHT22;1611;49.394;11.136;2024-01-30T15:43:50;9.60;42.30
3198;DHT22;1611;49.394;11.136;2024-01-30T15:46:17;9.50;43.20
3198;DHT22;1611;49.394;11.136;2024-01-30T15:48:45;9.30;44.10
3198;DHT22;1611;49.394;11.136;2024-01-30T15:51:12;9.20;44.10
3198;DHT22;1611;49.394;11.136;2024-01-30T15:53:39;9.20;44.80
3198;DHT22;1611;49.394;11.136;2024-01-30T15:56:06;9.10;46.10